Time;durP1;ratioP1;P1;durP2;ratioP2;P2;SDS_P1;SDS_P2;PMS_P1;PMS_P2;Temp;Humidity;BMP_temperature;BMP_pressure;BME280_temperature;BME280_humidity;BME280_pressure;Samples;Min_cycle;Max_cycle;Signal;HPM_P1;HPM_P2
2021/05/05 00:01:22;;;;;;;1.43;0.70;;;7.90;99.90;;;;;;5038767;28;20279;-50
2021/05/05 00:03:48;;;;;;;1.13;1.00;;;7.80;99.90;;;;;;5040245;28;20755;-50
2021/05/05 00:06:16;;;;;;;5.33;1.30;;;7.80;99.90;;;;;;5040169;28;20239;-50
2021/05/05 00:08:43;;;;;;;1.60;1.00;;;7.70;99.90;;;;;;5038621;28;20208;-50
2021/05/05 00:11:10;;;;;;;2.83;1.30;;;7.70;99.90;;;;;;5040676;28;20716;-50
2021/05/05 00:13:37;;;;;;;1.17;1.07;;;7.60;99.90;;;;;;5040026;28;20695;-50
2021/05/05 00:16:04;;;;;;;4.53;1.20;;;7.50;99.90;;;;;;5039270;28;20261;-50
2021/05/05 00:18:30;;;;;;;1.40;1.20;;;7.50;99.90;;;;;;5039637;28;20207;-51
2021/05/05 00:20:57;;;;;;;2.57;1.57;;;7.60;99.90;;;;;;5039488;28;20310;-50
2021/05/05 00:23:24;;;;;;;4.20;1.00;;;7.60;99.90;;;;;;5039545;28;20247;-51
2021/05/05 00:25:50;;;;;;;2.43;1.47;;;7.60;99.90;;;;;;5034773;28;20292;-50
2021/05/05 00:28:16;;;;;;;4.73;1.80;;;7.50;99.90;;;;;;5039476;28;20323;-49
2021/05/05 00:30:43;;;;;;;1.70;1.10;;;7.50;99.90;;;;;;5038461;28;20267;-50
2021/05/05 00:33:10;;;;;;;3.03;1.17;;;7.30;99.90;;;;;;5039222;28;20247;-50
2021/05/05 00:35:36;;;;;;;4.10;1.37;;;7.30;99.90;;;;;;5039724;28;20215;-50
2021/05/05 00:38:03;;;;;;;3.33;1.33;;;7.30;99.90;;;;;;5039558;28;20217;-51
2021/05/05 00:40:29;;;;;;;3.53;1.03;;;7.30;99.90;;;;;;5038846;28;20299;-50
2021/05/05 00:42:56;;;;;;;2.70;1.13;;;7.30;99.90;;;;;;5039038;28;20205;-50
2021/05/05 00:45:23;;;;;;;3.20;1.13;;;7.30;99.90;;;;;;5038124;28;20236;-50
2021/05/05 00:47:49;;;;;;;2.10;1.33;;;7.30;99.90;;;;;;5039422;28;20212;-50
2021/05/05 00:50:18;;;;;;;2.57;1.00;;;7.30;99.90;;;;;;5039604;28;20241;-50
2021/05/05 00:52:46;;;;;;;1.43;1.33;;;7.30;99.90;;;;;;5039101;28;20239;-50
2021/05/05 00:55:13;;;;;;;2.07;1.10;;;7.20;99.90;;;;;;5038553;28;20297;-50
2021/05/05 00:57:40;;;;;;;6.97;1.40;;;7.10;99.90;;;;;;5033557;28;20304;-50
2021/05/05 01:00:09;;;;;;;3.07;1.40;;;7.20;99.90;;;;;;5031616;28;20253;-50
2021/05/05 01:02:36;;;;;;;4.37;1.33;;;7.10;99.90;;;;;;5038923;28;20284;-51
2021/05/05 01:05:06;;;;;;;1.00;0.90;;;7.10;99.90;;;;;;5020916;28;20215;-51
2021/05/05 01:07:33;;;;;;;2.70;1.27;;;7.00;99.90;;;;;;5038803;28;20247;-50
2021/05/05 01:09:59;;;;;;;4.83;1.30;;;7.00;99.90;;;;;;5038697;28;20581;-50
2021/05/05 01:12:25;;;;;;;2.33;1.00;;;7.00;99.90;;;;;;5038686;28;20634;-50
2021/05/05 01:14:52;;;;;;;2.80;1.17;;;6.80;99.90;;;;;;5037843;28;20763;-50
2021/05/05 01:17:18;;;;;;;2.33;1.47;;;6.80;99.90;;;;;;5038240;28;20330;-51
2021/05/05 01:19:46;;;;;;;2.67;1.10;;;6.70;99.90;;;;;;5038603;28;20249;-51
2021/05/05 01:22:13;;;;;;;5.70;1.40;;;6.80;99.90;;;;;;5036718;28;20309;-50
2021/05/05 01:24:40;;;;;;;2.10;1.50;;;6.70;99.90;;;;;;5038989;28;20604;-51
2021/05/05 01:27:08;;;;;;;2.43;1.00;;;6.70;99.90;;;;;;5038614;28;20255;-51
2021/05/05 01:29:36;;;;;;;5.07;1.20;;;6.80;99.90;;;;;;5037372;28;20319;-50
2021/05/05 01:32:03;;;;;;;8.90;1.63;;;6.70;99.90;;;;;;5032242;28;20647;-50
2021/05/05 01:34:30;;;;;;;2.23;1.33;;;6.90;99.90;;;;;;5038094;28;20225;-50
2021/05/05 01:36:56;;;;;;;1.23;1.10;;;6.80;99.90;;;;;;5031922;28;20239;-50
2021/05/05 01:39:22;;;;;;;2.93;1.30;;;6.90;99.90;;;;;;5037529;28;20300;-49
2021/05/05 01:41:49;;;;;;;3.10;1.27;;;6.80;99.90;;;;;;5038018;28;20240;-49
2021/05/05 01:44:16;;;;;;;3.10;1.13;;;6.80;99.90;;;;;;5038139;28;20294;-49
2021/05/05 01:46:48;;;;;;;1.37;1.27;;;6.70;99.90;;;;;;5032157;28;20331;-50
2021/05/05 01:49:20;;;;;;;2.40;1.43;;;6.80;99.90;;;;;;5032050;28;20207;-49
2021/05/05 01:51:47;;;;;;;1.33;1.10;;;6.80;99.90;;;;;;5037975;28;20327;-49
2021/05/05 01:54:14;;;;;;;2.03;1.47;;;6.80;99.90;;;;;;5037358;28;20651;-50
2021/05/05 01:56:40;;;;;;;3.73;1.20;;;6.80;99.90;;;;;;5038297;28;20213;-50
2021/05/05 01:59:07;;;;;;;4.90;1.20;;;6.90;99.90;;;;;;5036949;28;20606;-50
2021/05/05 02:01:34;;;;;;;1.50;1.10;;;6.90;99.90;;;;;;5036796;28;20221;-50
2021/05/05 02:04:02;;;;;;;1.73;1.30;;;6.80;99.90;;;;;;5037588;28;20617;-49
2021/05/05 02:06:32;;;;;;;4.53;1.40;;;7.00;99.90;;;;;;5037264;28;20208;-50
2021/05/05 02:08:59;;;;;;;1.63;1.17;;;6.90;99.90;;;;;;5036716;28;20592;-50
2021/05/05 02:11:26;;;;;;;1.20;1.03;;;6.90;99.90;;;;;;5038276;28;20208;-50
2021/05/05 02:13:52;;;;;;;1.53;1.33;;;6.90;99.90;;;;;;5032035;28;20596;-50
2021/05/05 02:16:19;;;;;;;1.83;1.03;;;6.90;99.90;;;;;;5031942;28;20232;-50
2021/05/05 02:18:45;;;;;;;2.50;1.43;;;6.90;99.90;;;;;;5036685;28;20277;-50
2021/05/05 02:21:12;;;;;;;1.33;1.00;;;6.90;99.90;;;;;;5037426;28;20639;-50
2021/05/05 02:23:38;;;;;;;6.40;1.47;;;7.00;99.90;;;;;;5037355;28;20302;-51
2021/05/05 02:26:04;;;;;;;2.30;1.40;;;6.90;99.90;;;;;;5037537;28;20207;-50
2021/05/05 02:28:31;;;;;;;1.67;1.07;;;6.90;99.90;;;;;;5037144;28;20264;-50
2021/05/05 02:30:58;;;;;;;1.37;1.20;;;6.90;99.90;;;;;;5036573;28;20648;-49
2021/05/05 02:33:26;;;;;;;1.07;0.93;;;6.90;99.90;;;;;;5037509;28;20213;-50
2021/05/05 02:35:52;;;;;;;2.87;1.27;;;7.00;99.90;;;;;;5037957;28;20249;-50
2021/05/05 02:38:19;;;;;;;3.30;1.30;;;7.00;99.90;;;;;;5035802;28;20204;-50
2021/05/05 02:40:47;;;;;;;3.30;1.07;;;6.80;99.90;;;;;;5037139;28;20256;-50
2021/05/05 02:43:14;;;;;;;3.13;1.80;;;6.90;99.90;;;;;;5037025;28;20243;-49
2021/05/05 02:45:40;;;;;;;2.90;1.60;;;6.80;99.90;;;;;;5036045;28;20293;-49
2021/05/05 02:48:07;;;;;;;3.87;1.47;;;6.70;99.90;;;;;;5037315;28;20610;-49
2021/05/05 02:50:34;;;;;;;6.17;1.40;;;6.60;99.90;;;;;;5037424;28;20209;-49
2021/05/05 02:53:00;;;;;;;2.83;1.63;;;6.70;99.90;;;;;;5036714;28;20289;-50
2021/05/05 02:55:26;;;;;;;2.20;1.43;;;6.70;99.90;;;;;;5037147;28;20281;-49
2021/05/05 02:57:53;;;;;;;1.93;1.73;;;6.70;99.90;;;;;;5037689;28;20243;-49
2021/05/05 03:00:19;;;;;;;4.57;1.30;;;6.70;99.90;;;;;;5035175;28;20258;-50
2021/05/05 03:02:46;;;;;;;2.03;1.53;;;6.70;99.90;;;;;;5037661;28;20214;-49
2021/05/05 03:05:12;;;;;;;4.00;1.80;;;6.70;99.90;;;;;;5032538;28;20633;-49
2021/05/05 03:07:39;;;;;;;4.47;1.67;;;6.50;99.90;;;;;;5037135;28;20200;-50
2021/05/05 03:10:07;;;;;;;9.47;1.80;;;6.60;99.90;;;;;;5036747;28;20212;-50
2021/05/05 03:12:33;;;;;;;3.63;1.53;;;6.70;99.90;;;;;;5031336;28;20554;-50
2021/05/05 03:15:00;;;;;;;1.90;1.20;;;6.70;99.90;;;;;;5034585;28;20237;-50
2021/05/05 03:17:27;;;;;;;3.23;1.63;;;6.60;99.90;;;;;;5030507;28;20286;-49
2021/05/05 03:19:53;;;;;;;1.47;1.37;;;6.70;99.90;;;;;;5036131;28;20216;-49
2021/05/05 03:22:20;;;;;;;3.97;1.57;;;6.70;99.90;;;;;;5035277;28;20207;-50
2021/05/05 03:24:46;;;;;;;2.70;1.73;;;6.80;99.90;;;;;;5031407;28;20256;-49
2021/05/05 03:27:12;;;;;;;3.63;1.80;;;6.70;99.90;;;;;;5035893;28;20481;-49
2021/05/05 03:29:39;;;;;;;4.63;1.60;;;6.60;99.90;;;;;;5034790;28;20240;-51
2021/05/05 03:32:05;;;;;;;6.50;2.03;;;6.70;99.90;;;;;;5035696;28;20231;-50
2021/05/05 03:34:32;;;;;;;2.60;2.33;;;6.70;99.90;;;;;;5031113;28;20287;-50
2021/05/05 03:36:58;;;;;;;2.27;1.70;;;6.60;99.90;;;;;;5036497;28;20235;-50
2021/05/05 03:39:24;;;;;;;6.73;1.97;;;6.60;99.90;;;;;;5034364;28;20257;-49
2021/05/05 03:41:51;;;;;;;3.83;1.70;;;6.80;99.90;;;;;;5036011;28;20243;-50
2021/05/05 03:44:21;;;;;;;1.90;1.43;;;6.90;99.90;;;;;;5034082;28;20243;-49
2021/05/05 03:46:47;;;;;;;2.87;1.27;;;6.70;99.90;;;;;;5030775;28;20215;-49
2021/05/05 03:49:14;;;;;;;3.37;1.93;;;6.80;99.90;;;;;;5036035;28;20335;-49
2021/05/05 03:51:40;;;;;;;4.23;1.50;;;6.70;99.90;;;;;;5036593;28;20295;-49
2021/05/05 03:54:06;;;;;;;3.00;1.27;;;6.70;99.90;;;;;;5036068;28;20589;-50
2021/05/05 03:56:33;;;;;;;4.00;1.40;;;6.70;99.90;;;;;;5030577;28;20276;-49
2021/05/05 03:58:59;;;;;;;4.23;1.60;;;6.70;99.90;;;;;;5035061;28;20262;-49
2021/05/05 04:01:25;;;;;;;1.97;1.53;;;6.70;99.90;;;;;;5035036;28;20217;-50
2021/05/05 04:03:52;;;;;;;4.03;1.50;;;6.80;99.90;;;;;;5035890;28;21333;-49
2021/05/05 04:06:18;;;;;;;3.63;1.17;;;6.70;99.90;;;;;;5030262;28;20208;-50
2021/05/05 04:08:45;;;;;;;2.00;1.47;;;6.70;99.90;;;;;;5035231;28;20283;-50
2021/05/05 04:11:12;;;;;;;2.07;1.37;;;6.70;99.90;;;;;;5035563;28;20240;-50
2021/05/05 04:13:38;;;;;;;5.53;1.30;;;6.60;99.90;;;;;;5036749;28;20565;-50
2021/05/05 04:16:22;;;;;;;3.40;1.50;;;6.70;99.90;;;;;;5036077;28;20205;-50
2021/05/05 04:19:07;;;;;;;3.73;1.10;;;6.70;99.90;;;;;;5036421;28;20241;-50
2021/05/05 04:21:51;;;;;;;4.03;1.20;;;6.70;99.90;;;;;;5035550;28;20223;-50
2021/05/05 04:24:36;;;;;;;3.83;1.13;;;6.70;99.90;;;;;;5036013;28;20245;-50
2021/05/05 04:27:02;;;;;;;4.40;1.13;;;6.60;99.90;;;;;;5035285;28;20692;-50
2021/05/05 04:29:28;;;;;;;1.47;1.00;;;6.70;99.90;;;;;;5035303;28;20291;-49
2021/05/05 04:31:55;;;;;;;2.47;1.00;;;6.60;99.90;;;;;;5035127;28;20203;-50
2021/05/05 04:34:22;;;;;;;0.70;0.70;;;6.50;99.90;;;;;;5036367;28;20203;-50
2021/05/05 04:36:48;;;;;;;2.27;0.87;;;6.60;99.90;;;;;;5034950;28;20201;-50
2021/05/05 04:39:15;;;;;;;3.47;0.70;;;6.70;99.90;;;;;;5035539;28;20644;-50
2021/05/05 04:41:41;;;;;;;2.80;1.10;;;6.50;99.90;;;;;;5037228;28;20330;-50
2021/05/05 04:44:12;;;;;;;4.23;1.17;;;6.50;99.90;;;;;;5039092;28;20255;-50
2021/05/05 04:46:39;;;;;;;3.13;1.00;;;6.60;99.90;;;;;;5039704;28;20267;-50
2021/05/05 04:49:05;;;;;;;3.80;1.10;;;6.60;99.90;;;;;;5039044;28;20307;-50
2021/05/05 04:51:31;;;;;;;3.47;1.07;;;6.50;99.90;;;;;;5039454;28;20300;-50
2021/05/05 04:53:58;;;;;;;0.77;0.77;;;6.50;99.90;;;;;;5038570;28;20301;-50
2021/05/05 04:56:24;;;;;;;2.70;0.90;;;6.60;99.90;;;;;;5038415;28;20568;-50
2021/05/05 04:58:59;;;;;;;2.07;1.03;;;6.60;99.90;;;;;;5038500;28;20403;-50
2021/05/05 05:01:25;;;;;;;1.50;1.10;;;6.50;99.90;;;;;;5039235;28;20323;-50
2021/05/05 05:03:52;;;;;;;1.37;1.00;;;6.60;99.90;;;;;;5038882;28;20242;-50
2021/05/05 05:06:18;;;;;;;2.13;1.23;;;6.50;99.90;;;;;;5039080;28;20206;-50
2021/05/05 05:08:44;;;;;;;1.67;1.07;;;6.60;99.90;;;;;;5038293;28;20200;-50
2021/05/05 05:11:11;;;;;;;4.20;1.00;;;6.70;99.90;;;;;;5039048;28;20224;-50
2021/05/05 05:13:38;;;;;;;2.10;1.30;;;6.60;99.90;;;;;;5038794;28;20232;-49
2021/05/05 05:16:04;;;;;;;3.13;0.93;;;6.70;99.90;;;;;;5038444;28;20694;-50
2021/05/05 05:18:32;;;;;;;1.30;0.87;;;6.70;99.90;;;;;;5038732;28;20215;-49
2021/05/05 05:21:00;;;;;;;1.57;0.70;;;6.70;99.90;;;;;;5038972;28;20708;-50
2021/05/05 05:23:27;;;;;;;1.80;0.80;;;6.70;99.90;;;;;;5038785;28;20220;-50
2021/05/05 05:25:53;;;;;;;2.80;0.80;;;6.70;99.90;;;;;;5038815;28;20192;-50
2021/05/05 05:28:19;;;;;;;1.10;0.70;;;6.40;99.90;;;;;;5037110;28;20298;-50
2021/05/05 05:30:46;;;;;;;2.07;0.70;;;6.40;99.90;;;;;;5031935;28;20313;-50
2021/05/05 05:33:12;;;;;;;0.77;0.60;;;6.30;99.90;;;;;;5037797;28;20677;-49
2021/05/05 05:35:39;;;;;;;1.87;1.10;;;6.20;99.90;;;;;;5038937;28;20214;-49
2021/05/05 05:38:05;;;;;;;0.90;0.80;;;6.10;99.90;;;;;;5037499;28;20212;-50
2021/05/05 05:40:32;;;;;;;1.97;0.83;;;6.20;99.90;;;;;;5032211;28;20305;-50
2021/05/05 05:42:58;;;;;;;0.50;0.50;;;6.30;99.90;;;;;;5038442;28;20250;-49
2021/05/05 05:45:24;;;;;;;2.30;0.90;;;6.30;99.90;;;;;;5036968;28;20289;-49
2021/05/05 05:47:50;;;;;;;2.30;0.90;;;6.40;99.90;;;;;;5038168;28;20206;-50
2021/05/05 05:50:17;;;;;;;0.83;0.70;;;6.40;99.90;;;;;;5037940;28;20251;-50
2021/05/05 05:52:43;;;;;;;2.10;1.20;;;6.30;99.90;;;;;;5035755;28;20234;-50
2021/05/05 05:55:12;;;;;;;3.40;0.87;;;6.40;99.90;;;;;;5037528;28;20263;-50
2021/05/05 05:57:39;;;;;;;1.23;1.00;;;6.50;99.90;;;;;;5037340;28;20259;-50
2021/05/05 06:00:08;;;;;;;2.80;1.30;;;6.50;99.90;;;;;;5033552;28;20259;-49
2021/05/05 06:02:34;;;;;;;6.63;1.20;;;6.50;99.90;;;;;;5037069;28;20211;-50
2021/05/05 06:05:00;;;;;;;1.33;0.80;;;6.40;99.90;;;;;;5038165;28;20214;-49
2021/05/05 06:07:27;;;;;;;2.60;0.80;;;6.60;99.90;;;;;;5036864;28;20734;-49
2021/05/05 06:09:53;;;;;;;3.33;1.10;;;6.60;99.90;;;;;;5032041;28;20222;-50
2021/05/05 06:12:19;;;;;;;2.43;1.23;;;6.40;99.90;;;;;;5038297;28;20277;-50
2021/05/05 06:14:46;;;;;;;2.47;1.10;;;6.40;99.90;;;;;;5037446;28;20297;-49
2021/05/05 06:17:12;;;;;;;1.43;0.90;;;6.50;99.90;;;;;;5033532;28;20558;-50
2021/05/05 06:19:38;;;;;;;6.27;1.60;;;6.50;99.90;;;;;;5036081;28;20224;-49
2021/05/05 06:22:05;;;;;;;4.43;1.50;;;6.50;99.90;;;;;;5037107;28;20274;-50
2021/05/05 06:24:31;;;;;;;1.10;1.00;;;6.50;99.90;;;;;;5037571;28;20249;-50
2021/05/05 06:26:57;;;;;;;3.50;1.00;;;6.70;99.90;;;;;;5035924;28;20248;-50
2021/05/05 06:29:24;;;;;;;4.30;2.00;;;6.50;99.90;;;;;;5036611;28;20347;-49
2021/05/05 06:31:50;;;;;;;10.07;1.47;;;6.50;99.90;;;;;;5037204;28;20347;-50
2021/05/05 06:34:17;;;;;;;4.03;1.40;;;6.50;99.90;;;;;;5037791;28;20215;-50
2021/05/05 06:36:43;;;;;;;2.47;1.30;;;6.60;99.90;;;;;;5036607;28;20385;-50
2021/05/05 06:39:11;;;;;;;4.30;1.40;;;6.50;99.90;;;;;;5037193;28;20211;-50
2021/05/05 06:41:39;;;;;;;5.83;1.40;;;6.50;99.90;;;;;;5037038;28;20254;-50
2021/05/05 06:44:06;;;;;;;4.07;1.40;;;6.40;99.90;;;;;;5037253;28;20290;-49
2021/05/05 06:46:34;;;;;;;10.00;2.13;;;6.40;99.90;;;;;;5036334;28;20246;-50
2021/05/05 06:49:01;;;;;;;3.67;1.40;;;6.60;99.90;;;;;;5037653;28;20669;-49
2021/05/05 06:51:27;;;;;;;3.20;1.30;;;6.90;99.90;;;;;;5036867;28;20226;-50
2021/05/05 06:53:54;;;;;;;3.27;1.30;;;6.80;99.90;;;;;;5036245;28;20628;-49
2021/05/05 06:56:20;;;;;;;6.13;1.63;;;6.70;99.90;;;;;;5036749;28;20457;-50
2021/05/05 06:58:46;;;;;;;4.47;1.40;;;6.90;99.90;;;;;;5031399;28;20207;-50
2021/05/05 07:01:13;;;;;;;1.77;1.23;;;7.30;99.90;;;;;;5035725;28;20312;-50
2021/05/05 07:03:44;;;;;;;3.67;1.57;;;7.50;99.90;;;;;;5036047;28;20432;-50
2021/05/05 07:06:10;;;;;;;3.27;1.70;;;7.30;99.90;;;;;;5036157;28;20230;-50
2021/05/05 07:08:37;;;;;;;5.30;2.03;;;7.50;99.90;;;;;;5036296;28;20280;-50
2021/05/05 07:11:03;;;;;;;4.93;1.60;;;7.60;99.90;;;;;;5036608;28;20219;-49
2021/05/05 07:13:29;;;;;;;5.70;1.50;;;7.60;99.90;;;;;;5030554;28;20243;-50
2021/05/05 07:15:55;;;;;;;4.27;1.60;;;7.80;99.90;;;;;;5035042;28;20302;-50
2021/05/05 07:18:22;;;;;;;4.27;1.50;;;7.80;99.90;;;;;;5036657;28;20674;-51
2021/05/05 07:20:48;;;;;;;5.87;2.43;;;8.10;99.90;;;;;;5036278;28;20304;-50
2021/05/05 07:23:14;;;;;;;2.70;2.07;;;8.20;99.90;;;;;;5031026;28;20573;-50
2021/05/05 07:25:41;;;;;;;5.23;1.93;;;8.10;99.90;;;;;;5036779;28;20347;-50
2021/05/05 07:28:08;;;;;;;5.33;1.53;;;7.90;99.90;;;;;;5036355;28;20242;-50
2021/05/05 07:30:34;;;;;;;5.73;1.93;;;7.90;99.90;;;;;;5035235;28;20361;-50
2021/05/05 07:33:01;;;;;;;3.90;1.87;;;7.90;99.90;;;;;;5036164;28;20203;-50
2021/05/05 07:35:29;;;;;;;7.00;2.27;;;7.90;99.90;;;;;;5030597;28;20632;-50
2021/05/05 07:46:33;;;;;;;4.83;2.00;;;7.80;99.90;;;;;;5035957;28;20263;-49
2021/05/05 07:49:02;;;;;;;11.10;2.43;;;7.90;99.90;;;;;;5035748;28;20242;-50
2021/05/05 07:51:29;;;;;;;3.57;1.53;;;7.80;99.90;;;;;;5036022;28;20616;-50
2021/05/05 07:53:55;;;;;;;5.63;1.80;;;7.70;99.90;;;;;;5035587;28;20282;-50
2021/05/05 07:56:21;;;;;;;1.93;1.57;;;7.60;99.90;;;;;;5036423;28;20429;-50
2021/05/05 07:58:46;;;;;;;5.80;1.57;;;7.40;99.90;;;;;;5036347;28;20653;-49
2021/05/05 08:01:14;;;;;;;1.20;1.00;;;7.30;99.90;;;;;;5034636;28;20519;-50
2021/05/05 08:03:40;;;;;;;2.77;0.80;;;7.10;99.90;;;;;;5035561;28;20203;-50
2021/05/05 08:06:07;;;;;;;3.30;1.10;;;6.80;99.90;;;;;;5036176;28;20303;-50
2021/05/05 08:08:33;;;;;;;2.80;1.10;;;6.80;99.90;;;;;;5035215;28;20203;-49
2021/05/05 08:11:01;;;;;;;2.07;0.97;;;6.70;99.90;;;;;;5036247;28;20237;-50
2021/05/05 08:13:27;;;;;;;4.20;0.83;;;6.70;99.90;;;;;;5036395;28;20269;-50
2021/05/05 08:15:54;;;;;;;2.70;0.90;;;6.70;99.90;;;;;;5035369;28;20206;-50
2021/05/05 08:18:21;;;;;;;3.07;1.17;;;6.90;99.90;;;;;;5040849;28;20692;-49
2021/05/05 08:20:48;;;;;;;3.20;1.33;;;6.80;99.90;;;;;;5040457;28;20287;-50
2021/05/05 08:23:16;;;;;;;1.70;1.20;;;6.80;99.90;;;;;;5039084;28;20330;-50
2021/05/05 08:25:43;;;;;;;2.40;1.37;;;6.80;99.90;;;;;;5040043;28;20204;-50
2021/05/05 08:28:11;;;;;;;6.20;1.10;;;7.10;99.90;;;;;;5038473;28;20393;-50
2021/05/05 08:30:38;;;;;;;5.20;1.53;;;7.40;99.90;;;;;;5038642;28;20289;-49
2021/05/05 08:33:04;;;;;;;3.37;1.87;;;7.70;99.90;;;;;;5040014;28;20211;-50
2021/05/05 08:35:31;;;;;;;11.27;1.80;;;8.10;99.90;;;;;;5040363;28;20244;-50
2021/05/05 08:37:58;;;;;;;7.50;2.60;;;8.90;99.90;;;;;;5039189;28;20337;-50
2021/05/05 08:40:24;;;;;;;7.30;2.53;;;8.90;99.90;;;;;;5038524;28;20266;-49
2021/05/05 08:42:50;;;;;;;7.33;2.43;;;8.80;99.90;;;;;;5039864;28;20639;-50
2021/05/05 08:45:22;;;;;;;5.03;1.93;;;9.10;99.90;;;;;;5039077;28;20574;-50
2021/05/05 08:47:52;;;;;;;4.33;1.87;;;8.80;99.90;;;;;;5039738;28;20205;-50
2021/05/05 08:50:20;;;;;;;7.13;2.37;;;8.80;99.90;;;;;;5039953;28;20207;-50
2021/05/05 08:52:47;;;;;;;5.93;2.10;;;9.30;99.90;;;;;;5039476;28;20721;-50
2021/05/05 08:55:17;;;;;;;6.50;2.00;;;9.30;99.90;;;;;;5039954;28;20550;-50
2021/05/05 08:57:43;;;;;;;9.10;2.40;;;8.80;99.90;;;;;;5039726;28;20348;-50
2021/05/05 09:00:13;;;;;;;5.47;1.90;;;8.70;99.90;;;;;;5038050;28;20653;-49
2021/05/05 09:02:40;;;;;;;4.40;1.63;;;8.60;99.90;;;;;;5040060;28;20275;-50
2021/05/05 09:05:27;;;;;;;6.47;1.77;;;8.60;99.90;;;;;;5039282;28;20238;-50
2021/05/05 09:07:53;;;;;;;3.63;1.87;;;8.50;99.90;;;;;;5039291;28;20292;-50
2021/05/05 09:10:23;;;;;;;5.30;1.80;;;8.80;99.90;;;;;;5038250;28;20493;-50
2021/05/05 09:12:53;;;;;;;9.00;1.93;;;9.30;99.90;;;;;;5039280;28;20204;-50
2021/05/05 09:15:30;;;;;;;6.23;1.83;;;10.00;99.90;;;;;;5037935;28;20218;-50
2021/05/05 09:17:58;;;;;;;5.83;1.90;;;10.00;99.90;;;;;;5033848;28;20245;-50
2021/05/05 09:20:29;;;;;;;3.77;1.77;;;10.10;99.90;;;;;;5038504;28;20250;-50
2021/05/05 09:23:00;;;;;;;3.47;1.77;;;10.00;99.90;;;;;;5038829;28;20346;-50
2021/05/05 09:25:41;;;;;;;9.50;2.20;;;9.50;99.90;;;;;;5032280;28;20296;-50
2021/05/05 09:28:21;;;;;;;11.17;2.40;;;9.90;99.90;;;;;;5038126;28;20258;-49
2021/05/05 09:30:53;;;;;;;4.87;1.73;;;10.10;99.90;;;;;;5037696;28;20242;-50
2021/05/05 09:33:24;;;;;;;4.47;2.03;;;10.10;99.90;;;;;;5037369;28;20235;-49
2021/05/05 09:35:58;;;;;;;4.17;1.70;;;10.00;99.90;;;;;;5038721;28;20204;-51
2021/05/05 09:38:49;;;;;;;5.43;1.50;;;10.00;99.90;;;;;;5038497;28;20696;-50
2021/05/05 09:41:21;;;;;;;5.33;1.37;;;10.10;99.90;;;;;;5037103;28;20251;-50
2021/05/05 09:43:52;;;;;;;4.00;1.70;;;10.30;99.90;;;;;;5038644;28;20209;-50
2021/05/05 09:46:43;;;;;;;7.97;1.87;;;10.00;99.90;;;;;;5034932;28;20207;-50
2021/05/05 09:49:32;;;;;;;2.13;0.77;;;9.60;99.90;;;;;;5032025;28;20208;-50
2021/05/05 09:51:59;;;;;;;5.17;1.03;;;8.20;99.90;;;;;;5037512;28;20214;-50
2021/05/05 09:54:59;;;;;;;3.70;1.00;;;8.20;99.90;;;;;;5037808;28;20219;-50
2021/05/05 09:57:34;;;;;;;2.90;1.30;;;8.10;99.90;;;;;;5038505;28;20302;-50
2021/05/05 10:00:10;;;;;;;2.60;0.60;;;7.80;99.90;;;;;;5037233;28;20308;-50
2021/05/05 10:02:50;;;;;;;0.93;0.67;;;7.90;99.90;;;;;;5037764;28;20205;-50
2021/05/05 10:05:19;;;;;;;1.10;1.00;;;7.90;99.90;;;;;;5036969;28;20694;-49
2021/05/05 10:08:02;;;;;;;1.80;0.80;;;8.30;99.90;;;;;;5037047;28;20206;-49
2021/05/05 10:10:33;;;;;;;5.97;1.53;;;9.00;99.90;;;;;;5036553;28;20261;-50
2021/05/05 10:13:02;;;;;;;2.90;1.30;;;9.20;99.90;;;;;;5038243;28;20294;-49
2021/05/05 10:15:35;;;;;;;2.80;1.07;;;9.40;99.90;;;;;;5036373;28;20199;-50
2021/05/05 10:18:08;;;;;;;2.03;1.30;;;9.50;99.90;;;;;;5037838;28;20205;-50
2021/05/05 10:20:44;;;;;;;3.87;1.17;;;9.40;99.90;;;;;;5037504;28;20585;-50
2021/05/05 10:23:14;;;;;;;2.20;1.40;;;9.30;99.90;;;;;;5036634;28;20225;-49
2021/05/05 10:25:43;;;;;;;2.43;1.20;;;9.30;99.90;;;;;;5038160;28;20240;-50
2021/05/05 10:28:10;;;;;;;4.60;1.30;;;9.20;99.90;;;;;;5037206;28;20283;-50
2021/05/05 10:30:41;;;;;;;4.63;1.67;;;9.50;99.90;;;;;;5036162;28;20295;-50
2021/05/05 10:33:24;;;;;;;4.33;1.37;;;9.60;99.90;;;;;;5037135;28;20205;-51
2021/05/05 10:35:51;;;;;;;3.57;0.93;;;9.80;99.90;;;;;;5037146;28;20640;-49
2021/05/05 10:38:36;;;;;;;2.60;1.13;;;9.70;99.90;;;;;;5035552;28;20734;-50
2021/05/05 10:41:12;;;;;;;3.57;1.40;;;9.90;99.90;;;;;;5031793;28;20219;-49
2021/05/05 10:43:50;;;;;;;5.17;1.27;;;10.00;99.90;;;;;;5037568;28;20276;-50
2021/05/05 10:46:38;;;;;;;4.27;1.00;;;10.20;99.90;;;;;;5035030;28;20315;-50
2021/05/05 10:49:17;;;;;;;3.17;1.30;;;10.30;99.90;;;;;;5037227;28;20560;-50
2021/05/05 10:51:49;;;;;;;6.87;1.53;;;10.20;99.90;;;;;;5036886;28;20257;-50
2021/05/05 10:54:18;;;;;;;5.70;1.43;;;10.50;99.90;;;;;;5036727;28;20284;-50
2021/05/05 10:57:10;;;;;;;3.33;1.37;;;10.60;99.90;;;;;;5036837;28;20349;-49
2021/05/05 11:00:09;;;;;;;4.93;1.30;;;10.80;99.90;;;;;;5034711;28;20759;-49
2021/05/05 11:02:38;;;;;;;2.87;1.00;;;11.10;99.90;;;;;;5036622;28;20250;-50
2021/05/05 11:05:13;;;;;;;7.30;1.53;;;10.60;99.90;;;;;;5037047;28;20214;-50
2021/05/05 11:07:55;;;;;;;4.17;1.40;;;10.80;99.90;;;;;;5036233;28;20632;-50
2021/05/05 11:10:30;;;;;;;3.77;1.80;;;11.50;99.90;;;;;;5035638;28;20208;-50
2021/05/05 11:13:02;;;;;;;5.60;1.43;;;11.80;99.90;;;;;;5037681;28;20207;-50
2021/05/05 11:15:58;;;;;;;1.87;0.97;;;10.80;99.90;;;;;;5034539;28;20200;-50
2021/05/05 11:18:31;;;;;;;1.60;0.60;;;10.20;99.90;;;;;;5035530;28;20211;-50
2021/05/05 11:21:05;;;;;;;3.00;1.10;;;10.30;99.90;;;;;;5036166;28;20212;-50
2021/05/05 11:23:52;;;;;;;2.90;0.90;;;10.60;99.90;;;;;;5036003;28;20707;-50
2021/05/05 11:26:33;;;;;;;1.87;0.73;;;10.80;99.90;;;;;;5037194;28;20223;-51
2021/05/05 11:29:11;;;;;;;3.27;0.70;;;11.00;99.90;;;;;;5036252;28;20204;-50
2021/05/05 11:31:47;;;;;;;5.63;1.23;;;10.70;99.90;;;;;;5029272;28;20247;-50
2021/05/05 11:34:23;;;;;;;1.70;0.60;;;11.40;99.90;;;;;;5031087;28;20309;-50
2021/05/05 11:37:13;;;;;;;3.27;0.87;;;11.30;99.90;;;;;;5035760;28;20222;-49
2021/05/05 11:39:42;;;;;;;10.07;1.27;;;10.80;99.90;;;;;;5035605;28;20290;-50
2021/05/05 11:42:17;;;;;;;1.27;1.10;;;10.20;99.90;;;;;;5030582;28;20248;-50
2021/05/05 11:45:12;;;;;;;1.83;0.90;;;9.70;99.90;;;;;;5035034;28;20196;-51
2021/05/05 11:47:45;;;;;;;1.70;0.70;;;9.50;99.90;;;;;;5033250;28;20233;-49
2021/05/05 11:50:20;;;;;;;3.37;1.30;;;9.20;99.90;;;;;;5038526;28;20628;-50
2021/05/05 11:52:48;;;;;;;3.13;1.40;;;9.00;99.90;;;;;;5040252;28;20219;-50
2021/05/05 11:55:21;;;;;;;2.70;1.20;;;9.00;99.90;;;;;;5039635;28;20284;-50
2021/05/05 11:57:53;;;;;;;3.23;1.37;;;8.90;99.90;;;;;;5039949;28;20205;-50
2021/05/05 12:00:32;;;;;;;2.70;1.10;;;9.10;99.90;;;;;;5037079;28;20215;-49
2021/05/05 12:03:01;;;;;;;4.00;1.60;;;9.20;99.90;;;;;;5040696;28;20245;-50
2021/05/05 12:05:29;;;;;;;4.43;1.90;;;9.70;99.90;;;;;;5040469;28;20215;-49
2021/05/05 12:08:05;;;;;;;2.27;1.40;;;9.90;99.90;;;;;;5040220;28;20246;-50
2021/05/05 12:10:35;;;;;;;5.70;1.63;;;10.30;99.90;;;;;;5039280;28;20219;-50
2021/05/05 12:13:31;;;;;;;8.50;1.40;;;10.60;99.90;;;;;;5040472;28;20306;-50
2021/05/05 12:16:13;;;;;;;2.93;1.20;;;10.40;99.90;;;;;;5038756;28;20204;-50
2021/05/05 12:18:48;;;;;;;4.97;1.27;;;10.60;99.90;;;;;;5033880;28;20232;-50
2021/05/05 12:21:24;;;;;;;8.77;1.40;;;10.60;99.90;;;;;;5039777;28;20219;-50
2021/05/05 12:23:53;;;;;;;3.50;1.17;;;11.10;99.90;;;;;;5039106;28;20208;-50
2021/05/05 12:26:31;;;;;;;4.90;1.83;;;11.50;98.40;;;;;;5039855;28;20729;-50
2021/05/05 12:28:59;;;;;;;3.33;1.13;;;11.50;89.10;;;;;;5039264;28;20696;-49
2021/05/05 12:31:28;;;;;;;5.73;1.77;;;12.00;84.80;;;;;;5033875;28;20267;-50
2021/05/05 12:33:54;;;;;;;3.30;1.27;;;12.50;90.60;;;;;;5040016;28;20218;-50
2021/05/05 12:36:23;;;;;;;7.37;1.63;;;12.00;72.90;;;;;;5038594;28;20216;-50
2021/05/05 12:38:53;;;;;;;4.40;1.60;;;11.90;80.90;;;;;;5034352;28;20683;-50
2021/05/05 12:41:25;;;;;;;7.00;1.70;;;11.70;76.80;;;;;;5039305;28;20304;-50
2021/05/05 12:43:57;;;;;;;11.33;1.70;;;11.90;79.20;;;;;;5039227;28;20286;-50
2021/05/05 12:46:32;;;;;;;6.07;1.33;;;12.30;71.80;;;;;;5038225;28;20219;-50
2021/05/05 12:48:59;;;;;;;3.93;1.47;;;12.60;65.00;;;;;;5039270;28;20204;-50
2021/05/05 12:51:27;;;;;;;7.40;1.57;;;12.50;60.00;;;;;;5039388;28;20559;-49
2021/05/05 12:53:59;;;;;;;6.07;1.93;;;11.80;67.50;;;;;;5038937;28;20228;-49
2021/05/05 12:56:46;;;;;;;6.53;1.43;;;12.20;68.30;;;;;;5039025;28;20577;-50
2021/05/05 12:59:17;;;;;;;7.57;1.40;;;12.60;67.00;;;;;;5038426;28;20215;-50
2021/05/05 13:01:44;;;;;;;3.20;1.47;;;12.20;64.70;;;;;;5038635;28;20219;-50
2021/05/05 13:04:10;;;;;;;4.93;1.70;;;12.20;65.60;;;;;;5039203;28;20654;-50
2021/05/05 13:06:39;;;;;;;6.03;1.53;;;11.60;75.70;;;;;;5038969;28;20296;-48
2021/05/05 13:09:21;;;;;;;3.83;1.47;;;11.10;69.80;;;;;;5037786;28;20277;-50
2021/05/05 13:12:26;;;;;;;5.80;1.77;;;11.30;77.70;;;;;;5039215;28;20216;-49
2021/05/05 13:20:28;;;;;;;3.40;1.50;;;12.50;71.10;;;;;;5037456;28;20195;-50
2021/05/05 13:34:00;;;;;;;4.53;1.10;;;12.10;39.40;;;;;;5039025;28;20316;-49